createdAt,value
2022-11-15T00:00:31.687Z,12.60
2022-11-15T00:03:25.068Z,12.60
2022-11-15T00:06:13.366Z,12.60
2022-11-15T00:09:02.036Z,12.50
2022-11-15T00:11:49.482Z,12.50
2022-11-15T00:14:36.992Z,12.60
2022-11-15T00:17:24.469Z,12.50
2022-11-15T00:20:12.648Z,12.50
2022-11-15T00:23:00.112Z,12.60
2022-11-15T00:25:47.740Z,12.30
2022-11-15T00:28:35.246Z,12.40
2022-11-15T00:31:22.712Z,12.20
2022-11-15T00:34:11.726Z,12.10
2022-11-15T00:36:59.235Z,12.20
2022-11-15T00:39:46.687Z,12.20
2022-11-15T00:42:34.108Z,12.10
2022-11-15T00:45:21.630Z,12.10
2022-11-15T00:48:10.813Z,12.10
2022-11-15T00:50:58.913Z,12.00
2022-11-15T00:53:46.387Z,12.10
2022-11-15T00:56:33.832Z,12.20
2022-11-15T00:59:21.367Z,12.20
2022-11-15T01:02:08.872Z,12.10
2022-11-15T01:04:56.372Z,12.00
2022-11-15T01:07:43.992Z,12.00
2022-11-15T01:10:31.431Z,11.90
2022-11-15T01:13:18.998Z,12.00
2022-11-15T01:16:18.591Z,12.10
2022-11-15T01:19:06.062Z,12.00
2022-11-15T01:21:53.533Z,12.00
2022-11-15T01:24:41.002Z,12.00
2022-11-15T01:27:28.418Z,12.00
2022-11-15T01:30:16.402Z,12.00
2022-11-15T01:33:03.902Z,11.90
2022-11-15T01:35:51.371Z,11.80
2022-11-15T01:38:39.262Z,11.70
2022-11-15T01:41:33.795Z,11.80
2022-11-15T01:44:51.860Z,11.70
2022-11-15T01:47:46.357Z,11.70
2022-11-15T01:50:34.597Z,11.70
2022-11-15T01:53:26.633Z,11.70
2022-11-15T01:56:21.114Z,11.70
2022-11-15T01:59:11.266Z,11.70
2022-11-15T02:01:58.977Z,11.70
2022-11-15T02:04:49.271Z,11.50
2022-11-15T02:07:38.691Z,11.40
2022-11-15T02:10:26.823Z,11.40
2022-11-15T02:13:17.560Z,11.50
2022-11-15T02:16:23.953Z,11.60
2022-11-15T02:19:33.271Z,11.60
2022-11-15T02:22:59.002Z,11.70
2022-11-15T02:26:24.112Z,11.60
2022-11-15T02:29:53.264Z,11.70
2022-11-15T02:33:23.092Z,11.60
2022-11-15T02:37:08.171Z,11.60
2022-11-15T02:40:27.961Z,11.70
2022-11-15T02:43:47.147Z,11.50
2022-11-15T02:47:11.441Z,11.50
2022-11-15T02:50:07.605Z,11.50
2022-11-15T02:52:55.567Z,11.40
2022-11-15T02:55:51.581Z,11.40
2022-11-15T02:59:21.102Z,11.40
2022-11-15T03:02:27.087Z,11.40
2022-11-15T03:05:23.392Z,11.40
2022-11-15T03:08:52.361Z,11.40
2022-11-15T03:11:49.271Z,11.40
2022-11-15T03:14:57.365Z,11.60
2022-11-15T03:17:59.659Z,11.40
2022-11-15T03:20:50.286Z,11.20
2022-11-15T03:23:40.605Z,10.90
2022-11-15T03:26:31.228Z,11.10
2022-11-15T03:29:25.921Z,11.10
2022-11-15T03:32:21.482Z,11.20
2022-11-15T03:35:29.023Z,11.30
2022-11-15T03:38:27.278Z,11.30
2022-11-15T03:41:32.769Z,11.40
2022-11-15T03:45:10.451Z,11.50
2022-11-15T03:48:16.302Z,11.60
2022-11-15T03:51:06.165Z,11.60
2022-11-15T03:53:53.836Z,11.90
2022-11-15T03:56:41.612Z,11.70
2022-11-15T03:59:29.180Z,11.60
2022-11-15T04:02:17.276Z,11.70
2022-11-15T04:05:05.805Z,11.60
2022-11-15T04:07:53.480Z,11.70
2022-11-15T04:10:41.327Z,11.60
2022-11-15T04:13:29.043Z,11.80
2022-11-15T04:16:16.874Z,11.90
2022-11-15T04:19:23.282Z,11.70
2022-11-15T04:22:29.518Z,11.70
2022-11-15T04:25:20.666Z,11.50
2022-11-15T04:28:12.469Z,11.50
2022-11-15T04:31:00.447Z,11.50
2022-11-15T04:33:48.068Z,11.70
2022-11-15T04:36:54.096Z,11.60
2022-11-15T04:39:43.872Z,11.50
2022-11-15T04:42:31.347Z,11.50
2022-11-15T04:45:19.258Z,11.50
2022-11-15T04:48:06.737Z,11.60
2022-11-15T04:50:54.221Z,11.60
2022-11-15T04:53:41.732Z,11.70
2022-11-15T04:56:29.205Z,11.60
2022-11-15T04:59:16.671Z,11.70
2022-11-15T05:02:04.265Z,11.70
2022-11-15T05:04:51.737Z,11.70
2022-11-15T05:07:39.241Z,11.70
2022-11-15T05:10:26.667Z,11.60
2022-11-15T05:13:14.306Z,11.50
2022-11-15T05:16:01.870Z,11.50
2022-11-15T05:18:53.895Z,11.60
2022-11-15T05:21:41.940Z,11.60
2022-11-15T05:24:29.380Z,11.50
2022-11-15T05:27:17.022Z,11.90
2022-11-15T05:30:04.827Z,12.10
2022-11-15T05:32:52.310Z,12.30
2022-11-15T05:35:50.160Z,12.40
2022-11-15T05:38:38.195Z,12.40
2022-11-15T05:41:36.770Z,12.60
2022-11-15T05:44:27.429Z,12.50
2022-11-15T05:47:27.396Z,12.10
2022-11-15T05:50:19.171Z,12.10
2022-11-15T05:53:07.531Z,12.10
2022-11-15T05:55:55.176Z,12.10
2022-11-15T05:58:44.385Z,11.80
2022-11-15T06:01:32.080Z,11.70
2022-11-15T06:04:19.595Z,11.50
2022-11-15T06:07:07.135Z,11.50
2022-11-15T06:09:54.689Z,11.40
2022-11-15T06:12:42.141Z,11.40
2022-11-15T06:15:30.046Z,11.50
2022-11-15T06:18:17.476Z,11.50
2022-11-15T06:21:05.632Z,11.40
2022-11-15T06:23:53.096Z,11.60
2022-11-15T06:26:40.547Z,11.60
2022-11-15T06:29:28.008Z,11.80
2022-11-15T06:32:15.495Z,12.00
2022-11-15T06:35:03.151Z,12.10
2022-11-15T06:37:50.594Z,12.50
2022-11-15T06:40:40.796Z,12.80
2022-11-15T06:43:28.351Z,13.00
2022-11-15T06:46:15.899Z,13.20
2022-11-15T06:49:09.287Z,13.10
2022-11-15T06:51:57.416Z,13.30
2022-11-15T06:54:45.427Z,13.40
2022-11-15T06:57:33.422Z,13.60
2022-11-15T07:00:24.431Z,13.70
2022-11-15T07:03:12.256Z,13.70
2022-11-15T07:06:05.715Z,13.80
2022-11-15T07:08:54.581Z,13.90
2022-11-15T07:11:43.386Z,13.80
2022-11-15T07:14:30.776Z,13.80
2022-11-15T07:17:18.227Z,13.80
2022-11-15T07:20:06.513Z,14.00
2022-11-15T07:23:05.349Z,14.00
2022-11-15T07:25:52.917Z,13.90
2022-11-15T07:28:40.676Z,14.10
2022-11-15T07:31:28.538Z,13.90
2022-11-15T07:34:15.966Z,13.90
2022-11-15T07:37:03.465Z,14.30
2022-11-15T07:39:50.933Z,14.20
2022-11-15T07:42:53.685Z,14.20
2022-11-15T07:45:46.525Z,14.30
2022-11-15T07:48:43.232Z,14.20
2022-11-15T07:51:31.977Z,14.30
2022-11-15T07:54:19.455Z,14.10
2022-11-15T07:57:08.621Z,14.20
2022-11-15T07:59:56.197Z,14.40
2022-11-15T08:02:44.380Z,14.40
2022-11-15T08:05:33.221Z,14.40
2022-11-15T08:08:20.727Z,14.00
2022-11-15T08:11:08.227Z,14.10
2022-11-15T08:13:55.752Z,14.50
2022-11-15T08:16:43.234Z,14.30
2022-11-15T08:19:30.691Z,14.30
2022-11-15T08:22:19.043Z,14.40
2022-11-15T08:25:06.789Z,14.40
2022-11-15T08:27:57.185Z,14.60
2022-11-15T08:30:46.493Z,14.50
2022-11-15T08:33:37.008Z,14.40
2022-11-15T08:36:24.451Z,14.30
2022-11-15T08:39:13.716Z,14.10
2022-11-15T08:42:01.348Z,14.50
2022-11-15T08:44:48.816Z,14.60
2022-11-15T08:47:36.347Z,14.20
2022-11-15T08:50:24.379Z,14.50
2022-11-15T08:53:13.809Z,14.50
2022-11-15T08:56:01.586Z,14.30
2022-11-15T08:58:49.072Z,14.30
2022-11-15T09:01:36.604Z,14.60
2022-11-15T09:04:24.291Z,14.90
2022-11-15T09:07:12.956Z,14.90
2022-11-15T09:10:01.233Z,15.20
2022-11-15T09:12:51.697Z,15.10
2022-11-15T09:15:39.204Z,15.20
2022-11-15T09:18:26.843Z,15.40
2022-11-15T09:21:15.163Z,15.60
2022-11-15T09:24:03.422Z,15.40
2022-11-15T09:26:52.517Z,15.20
2022-11-15T09:29:40.078Z,15.30
2022-11-15T09:32:35.016Z,15.40
2022-11-15T09:35:26.417Z,15.40
2022-11-15T09:38:13.914Z,15.50
2022-11-15T09:41:15.829Z,15.70
2022-11-15T09:44:42.293Z,15.70
2022-11-15T09:47:52.692Z,15.50
2022-11-15T09:51:01.340Z,15.60
2022-11-15T09:57:17.447Z,15.70
2022-11-15T10:00:48.339Z,15.60
2022-11-15T10:03:43.302Z,15.80
2022-11-15T10:06:35.918Z,16.00
2022-11-15T10:09:33.187Z,15.80
2022-11-15T10:12:20.788Z,15.80
2022-11-15T10:15:16.908Z,15.60
2022-11-15T10:18:17.912Z,15.60
2022-11-15T10:21:21.654Z,15.50
2022-11-15T10:24:16.982Z,15.50
2022-11-15T10:27:18.868Z,15.60
2022-11-15T10:30:15.058Z,15.00
2022-11-15T10:33:34.931Z,15.30
2022-11-15T10:36:27.652Z,15.40
2022-11-15T10:39:15.536Z,15.40
2022-11-15T10:42:29.620Z,15.10
2022-11-15T10:45:29.945Z,15.20
2022-11-15T10:48:25.471Z,14.70
2022-11-15T10:51:30.972Z,14.70
2022-11-15T10:54:44.482Z,14.30
2022-11-15T10:57:37.491Z,14.60
2022-11-15T11:00:33.943Z,14.90
2022-11-15T11:03:41.199Z,15.20
2022-11-15T11:06:29.890Z,15.20
2022-11-15T11:09:37.721Z,14.70
2022-11-15T11:12:34.632Z,14.70
2022-11-15T11:15:28.992Z,14.70
2022-11-15T11:18:48.509Z,15.20
2022-11-15T11:21:47.906Z,14.70
2022-11-15T11:24:49.002Z,15.00
2022-11-15T11:28:06.674Z,15.20
2022-11-15T11:31:13.382Z,15.20
2022-11-15T11:34:20.878Z,14.80
2022-11-15T11:37:30.507Z,15.10
2022-11-15T11:40:31.282Z,15.20
2022-11-15T11:43:46.441Z,15.30
2022-11-15T11:47:19.724Z,15.20
2022-11-15T11:50:21.823Z,14.80
2022-11-15T11:53:49.636Z,15.10
2022-11-15T11:56:43.712Z,15.30
2022-11-15T12:00:00.947Z,15.50
2022-11-15T12:03:19.565Z,15.50
2022-11-15T12:06:51.968Z,15.70
2022-11-15T12:10:06.767Z,15.90
2022-11-15T12:13:11.469Z,15.80
2022-11-15T12:16:18.553Z,15.80
2022-11-15T12:19:06.318Z,15.80
2022-11-15T12:22:40.100Z,15.80
2022-11-15T12:25:46.946Z,15.70
2022-11-15T12:29:05.992Z,15.90
2022-11-15T12:32:00.915Z,15.80
2022-11-15T12:34:51.276Z,15.40
2022-11-15T12:37:45.083Z,15.60
2022-11-15T12:41:28.597Z,15.70
2022-11-15T12:44:50.973Z,15.70
2022-11-15T12:47:38.431Z,15.30
2022-11-15T12:50:57.314Z,15.30
2022-11-15T12:53:44.843Z,15.40
2022-11-15T12:56:33.046Z,15.60
2022-11-15T12:59:56.177Z,15.60
2022-11-15T13:02:46.798Z,15.60
2022-11-15T13:05:36.961Z,14.90
2022-11-15T13:08:45.105Z,15.40
2022-11-15T13:12:02.841Z,15.80
2022-11-15T13:15:13.425Z,15.90
2022-11-15T13:18:30.649Z,15.50
2022-11-15T13:21:44.002Z,15.60
2022-11-15T13:24:31.507Z,15.30
2022-11-15T13:27:21.494Z,15.50
2022-11-15T13:30:32.115Z,15.50
2022-11-15T13:33:37.985Z,15.70
2022-11-15T13:36:35.417Z,15.60
2022-11-15T13:39:35.157Z,15.60
2022-11-15T13:42:22.800Z,15.80
2022-11-15T13:45:18.236Z,15.90
2022-11-15T13:48:07.359Z,15.80
2022-11-15T13:50:54.912Z,15.70
2022-11-15T13:53:48.273Z,15.80
2022-11-15T13:56:36.946Z,15.90
2022-11-15T13:59:33.257Z,15.80
2022-11-15T14:02:37.091Z,15.80
2022-11-15T14:05:28.017Z,15.70
2022-11-15T14:08:21.619Z,15.70
2022-11-15T14:11:18.741Z,15.90
2022-11-15T14:14:09.044Z,16.00
2022-11-15T14:17:02.290Z,15.90
2022-11-15T14:19:50.316Z,16.00
2022-11-15T14:22:38.927Z,15.90
2022-11-15T14:25:36.716Z,15.80
2022-11-15T14:28:24.276Z,15.70
2022-11-15T14:31:14.271Z,15.20
2022-11-15T14:34:01.747Z,15.40
2022-11-15T14:36:49.672Z,15.60
2022-11-15T14:39:37.135Z,15.80
2022-11-15T14:42:26.125Z,15.80
2022-11-15T14:45:22.901Z,15.60
2022-11-15T14:48:10.778Z,15.60
2022-11-15T14:50:58.291Z,15.70
2022-11-15T14:53:47.605Z,15.40
2022-11-15T14:56:35.169Z,15.50
2022-11-15T14:59:22.806Z,15.00
2022-11-15T15:02:30.642Z,14.80
2022-11-15T15:05:25.427Z,15.30
2022-11-15T15:08:13.078Z,15.20
2022-11-15T15:11:00.877Z,15.10
2022-11-15T15:13:48.752Z,15.20
2022-11-15T15:16:36.401Z,15.20
2022-11-15T15:19:26.218Z,15.30
2022-11-15T15:22:18.966Z,15.30
2022-11-15T15:25:35.947Z,15.40
2022-11-15T15:28:23.614Z,15.30
2022-11-15T15:31:12.013Z,15.30
2022-11-15T15:33:59.632Z,15.50
2022-11-15T15:36:47.190Z,15.60
2022-11-15T15:39:34.770Z,15.20
2022-11-15T15:42:24.021Z,15.50
2022-11-15T15:45:12.104Z,15.50
2022-11-15T15:47:59.607Z,15.30
2022-11-15T15:50:48.182Z,15.50
2022-11-15T15:53:36.231Z,15.30
2022-11-15T15:56:23.759Z,15.30
2022-11-15T15:59:11.391Z,15.10
2022-11-15T16:01:59.166Z,15.30
2022-11-15T16:04:46.836Z,15.40
2022-11-15T16:07:34.370Z,15.30
2022-11-15T16:10:29.698Z,15.40
2022-11-15T16:13:18.580Z,15.40
2022-11-15T16:16:13.573Z,15.60
2022-11-15T16:19:01.876Z,15.40
2022-11-15T16:21:49.792Z,15.40
2022-11-15T16:24:37.312Z,15.50
2022-11-15T16:27:25.562Z,14.90
2022-11-15T16:30:17.744Z,15.20
2022-11-15T16:33:05.659Z,15.00
2022-11-15T16:35:53.376Z,15.50
2022-11-15T16:38:40.862Z,15.20
2022-11-15T16:41:28.488Z,15.60
2022-11-15T16:44:16.277Z,15.70
2022-11-15T16:47:07.171Z,15.40
2022-11-15T16:49:54.577Z,15.40
2022-11-15T16:52:42.138Z,15.50
2022-11-15T16:55:30.660Z,15.70
2022-11-15T16:58:18.447Z,15.60
2022-11-15T17:01:06.110Z,15.60
2022-11-15T17:03:55.062Z,15.60
2022-11-15T17:06:47.254Z,15.80
2022-11-15T17:09:35.136Z,15.60
2022-11-15T17:12:22.607Z,15.60
2022-11-15T17:15:13.722Z,15.60
2022-11-15T17:18:01.208Z,15.70
2022-11-15T17:20:48.701Z,15.50
2022-11-15T17:23:36.457Z,15.80
2022-11-15T17:26:30.334Z,15.70
2022-11-15T17:29:18.952Z,15.30
2022-11-15T17:32:06.402Z,15.50
2022-11-15T17:34:53.941Z,15.10
2022-11-15T17:37:41.406Z,15.30
2022-11-15T17:40:28.859Z,15.40
2022-11-15T17:43:16.908Z,15.50
2022-11-15T17:46:12.526Z,15.60
2022-11-15T17:49:00.142Z,15.20
2022-11-15T17:51:50.157Z,15.40
2022-11-15T17:54:37.923Z,15.60
2022-11-15T17:57:25.470Z,15.50
2022-11-15T18:00:13.787Z,15.50
2022-11-15T18:03:01.193Z,15.20
2022-11-15T18:05:48.637Z,15.50
2022-11-15T18:08:38.212Z,15.50
2022-11-15T18:11:33.492Z,15.40
2022-11-15T18:14:21.815Z,15.80
2022-11-15T18:17:09.836Z,15.50
2022-11-15T18:19:57.515Z,15.50
2022-11-15T18:22:45.116Z,15.60
2022-11-15T18:25:32.734Z,15.70
2022-11-15T18:28:20.498Z,15.40
2022-11-15T18:31:29.116Z,15.70
2022-11-15T18:34:18.071Z,15.60
2022-11-15T18:37:05.727Z,15.70
2022-11-15T18:39:54.290Z,15.80
2022-11-15T18:42:41.827Z,15.50
2022-11-15T18:45:29.361Z,15.80
2022-11-15T18:48:16.834Z,15.60
2022-11-15T18:51:11.030Z,15.80
2022-11-15T18:54:01.607Z,15.80
2022-11-15T18:56:49.126Z,15.90
2022-11-15T18:59:36.618Z,15.80
2022-11-15T19:02:24.468Z,15.60
2022-11-15T19:05:13.050Z,15.80
2022-11-15T19:08:00.582Z,15.60
2022-11-15T19:10:47.961Z,15.80
2022-11-15T19:13:35.822Z,15.40
2022-11-15T19:16:25.277Z,15.30
2022-11-15T19:19:17.047Z,15.50
2022-11-15T19:22:04.512Z,15.60
2022-11-15T19:24:51.998Z,15.60
2022-11-15T19:27:39.573Z,15.20
2022-11-15T19:30:27.187Z,15.70
2022-11-15T19:33:14.811Z,15.50
2022-11-15T19:36:05.805Z,15.60
2022-11-15T19:38:55.483Z,15.70
2022-11-15T19:41:44.651Z,15.70
2022-11-15T19:44:32.143Z,15.70
2022-11-15T19:47:19.635Z,15.80
2022-11-15T19:50:07.711Z,15.50
2022-11-15T19:52:55.167Z,15.10
2022-11-15T19:55:43.399Z,14.50
2022-11-15T19:58:32.075Z,14.70
2022-11-15T20:01:26.218Z,14.40
2022-11-15T20:04:13.800Z,14.40
2022-11-15T20:07:01.517Z,14.60
2022-11-15T20:09:49.178Z,14.80
2022-11-15T20:12:36.686Z,14.50
2022-11-15T20:15:24.205Z,14.30
2022-11-15T20:18:11.667Z,14.50
2022-11-15T20:20:59.817Z,14.80
2022-11-15T20:23:48.162Z,14.60
2022-11-15T20:26:35.921Z,14.70
2022-11-15T20:29:24.047Z,14.20
2022-11-15T20:32:12.288Z,14.20
2022-11-15T20:34:59.826Z,14.50
2022-11-15T20:37:47.387Z,14.00
2022-11-15T20:40:35.153Z,14.10
2022-11-15T20:43:22.647Z,14.10
2022-11-15T20:46:12.289Z,14.30
2022-11-15T20:49:00.066Z,14.20
2022-11-15T20:51:47.684Z,14.60
2022-11-15T20:54:35.527Z,14.40
2022-11-15T20:57:22.962Z,14.10
2022-11-15T21:00:11.507Z,14.40
2022-11-15T21:02:58.965Z,14.50
2022-11-15T21:05:46.386Z,14.40
2022-11-15T21:08:53.928Z,14.30
2022-11-15T21:12:00.640Z,13.90
2022-11-15T21:14:49.133Z,13.90
2022-11-15T21:17:36.631Z,14.10
2022-11-15T21:20:24.126Z,14.00
2022-11-15T21:23:12.616Z,14.20
2022-11-15T21:26:00.127Z,13.80
2022-11-15T21:28:47.567Z,13.80
2022-11-15T21:31:35.337Z,14.20
2022-11-15T21:34:22.893Z,14.30
2022-11-15T21:37:11.093Z,14.40
2022-11-15T21:39:58.538Z,14.10
2022-11-15T21:42:45.976Z,14.00
2022-11-15T21:45:33.482Z,14.10
2022-11-15T21:48:21.026Z,14.10
2022-11-15T21:51:12.189Z,14.40
2022-11-15T21:54:00.565Z,14.40
2022-11-15T21:56:48.063Z,14.30
2022-11-15T21:59:55.432Z,14.10
2022-11-15T22:02:42.867Z,14.20
2022-11-15T22:05:30.332Z,13.90
2022-11-15T22:08:17.787Z,14.10
2022-11-15T22:11:05.750Z,14.40
2022-11-15T22:13:53.307Z,14.30
2022-11-15T22:16:41.189Z,14.40
2022-11-15T22:19:28.717Z,14.30
2022-11-15T22:22:16.228Z,14.30
2022-11-15T22:25:04.162Z,14.30
2022-11-15T22:27:53.413Z,14.40
2022-11-15T22:30:41.232Z,14.20
2022-11-15T22:33:31.917Z,14.40
2022-11-15T22:36:19.517Z,14.30
2022-11-15T22:39:07.147Z,14.10
2022-11-15T22:41:55.248Z,14.00
2022-11-15T22:44:42.729Z,13.90
2022-11-15T22:47:30.231Z,14.40
2022-11-15T22:50:18.582Z,14.50
2022-11-15T22:53:06.093Z,14.40
2022-11-15T22:55:57.889Z,14.50
2022-11-15T22:58:45.447Z,14.40
2022-11-15T23:01:32.964Z,14.70
2022-11-15T23:04:20.607Z,14.50
2022-11-15T23:07:08.268Z,14.70
2022-11-15T23:10:15.757Z,14.70
2022-11-15T23:13:19.092Z,14.80
2022-11-15T23:16:22.763Z,14.70
2022-11-15T23:19:12.972Z,14.80
2022-11-15T23:22:19.337Z,14.90
2022-11-15T23:25:07.322Z,14.60
2022-11-15T23:27:54.855Z,14.30
2022-11-15T23:31:01.232Z,14.50
2022-11-15T23:33:57.854Z,14.80
2022-11-15T23:36:45.534Z,15.00
2022-11-15T23:39:33.383Z,14.80
2022-11-15T23:42:20.932Z,14.70
2022-11-15T23:45:08.867Z,14.20
2022-11-15T23:48:01.143Z,14.10
2022-11-15T23:50:49.452Z,14.60
2022-11-15T23:53:37.549Z,14.70
2022-11-15T23:56:26.078Z,14.50
2022-11-15T23:59:13.634Z,14.70
